Hier das METAR für die 16 wichtigsten Deutschen Flughäfen.
(dauert ein wenig.... ich muss laden.....)

ODER
METAR nach ICAO Code suchen

Berlin - Schönefeld

EDDB

METAR
EDDB 190050Z 26011KT 9999 BKN014 05/02 Q1032 NOSIG
EDDBMETAR lang
Berlin-Schoenefeld, Germany (EDDB) 52-23N 013-31E 50M
Jan 18, 2022 - 07:50 PM EST / 2022.01.19 0050 UTC
Wind: from the W (260 degrees) at 13 MPH (11 KT):0
Visibility: greater than 7 mile(s):0
Sky conditions: mostly cloudy
Temperature: 41 F (5 C)
Dew Point: 35 F (2 C)
Relative Humidity: 80%
Pressure (altimeter): 30.47 in. Hg (1032 hPa)
ob: EDDB 190050Z 26011KT 9999 BKN014 05/02 Q1032 NOSIG
cycle: 1

Dresden

EDDC

METAR
EDDC 190050Z 21004KT 9999 BKN020 03/02 Q1033
EDDCMETAR lang
Dresden-Klotzsche, Germany (EDDC) 51-08N 013-45E 232M
Jan 18, 2022 - 07:50 PM EST / 2022.01.19 0050 UTC
Wind: from the SSW (210 degrees) at 5 MPH (4 KT):0
Visibility: greater than 7 mile(s):0
Sky conditions: mostly cloudy
Temperature: 37 F (3 C)
Dew Point: 35 F (2 C)
Relative Humidity: 93%
Pressure (altimeter): 30.50 in. Hg (1033 hPa)
ob: EDDC 190050Z 21004KT 9999 BKN020 03/02 Q1033
cycle: 1

Erfurt

EDDE

METAR
EDDE 190050Z 21004KT 9999 OVC016 02/01 Q1032
EDDEMETAR lang
Erfurt-Bindersleben, Germany (EDDE) 50-59N 010-58E 322M
Jan 18, 2022 - 07:50 PM EST / 2022.01.19 0050 UTC
Wind: from the SSW (210 degrees) at 5 MPH (4 KT):0
Visibility: greater than 7 mile(s):0
Sky conditions: overcast
Temperature: 35 F (2 C)
Windchill: 30 F (-1 C):1
Dew Point: 33 F (1 C)
Relative Humidity: 93%
Pressure (altimeter): 30.47 in. Hg (1032 hPa)
ob: EDDE 190050Z 21004KT 9999 OVC016 02/01 Q1032
cycle: 1

Frankfurt a. Main

EDDF

METAR
EDDF 190050Z 12007KT 090V160 9999 OVC020 05/01 Q1033 NOSIG
EDDFMETAR lang
Frankfurt / M-Flughafen, Germany (EDDF) 50-03N 008-36E 113M
Jan 18, 2022 - 07:50 PM EST / 2022.01.19 0050 UTC
Wind: from the ESE (120 degrees) at 8 MPH (7 KT) (direction variable):0
Visibility: greater than 7 mile(s):0
Sky conditions: overcast
Temperature: 41 F (5 C)
Dew Point: 33 F (1 C)
Relative Humidity: 75%
Pressure (altimeter): 30.50 in. Hg (1033 hPa)
ob: EDDF 190050Z 12007KT 090V160 9999 OVC020 05/01 Q1033 NOSIG
cycle: 1

Münster Osnabrück

EDDG

METAR
EDDG 190050Z VRB02KT 8000 FEW019 02/02 Q1032 NOSIG
EDDGMETAR lang
Muenster / Osnabrueck, Germany (EDDG) 52-08N 007-42E 53M
Jan 18, 2022 - 07:50 PM EST / 2022.01.19 0050 UTC
Wind: Variable at 2 MPH (2 KT):0
Visibility: 4 mile(s):0
Sky conditions: mostly clear
Temperature: 35 F (2 C)
Dew Point: 35 F (2 C)
Relative Humidity: 100%
Pressure (altimeter): 30.47 in. Hg (1032 hPa)
ob: EDDG 190050Z VRB02KT 8000 FEW019 02/02 Q1032 NOSIG
cycle: 1

Hamburg

EDDH

METAR
EDDH 190050Z 25007KT 210V280 9999 OVC009 05/03 Q1031 NOSIG
EDDHMETAR lang
Hamburg-Fuhlsbuettel, Germany (EDDH) 53-38N 010-00E 15M
Jan 18, 2022 - 07:50 PM EST / 2022.01.19 0050 UTC
Wind: from the WSW (250 degrees) at 8 MPH (7 KT) (direction variable):0
Visibility: greater than 7 mile(s):0
Sky conditions: overcast
Temperature: 41 F (5 C)
Dew Point: 37 F (3 C)
Relative Humidity: 86%
Pressure (altimeter): 30.45 in. Hg (1031 hPa)
ob: EDDH 190050Z 25007KT 210V280 9999 OVC009 05/03 Q1031 NOSIG
cycle: 1

Köln - Bonn

EDDK

METAR
EDDK 190050Z 10005KT 9999 FEW024 03/01 Q1031 NOSIG
EDDKMETAR lang
Koeln / Bonn, Germany (EDDK) 50-52N 007-10E 100M
Jan 18, 2022 - 07:50 PM EST / 2022.01.19 0050 UTC
Wind: from the E (100 degrees) at 6 MPH (5 KT):0
Visibility: greater than 7 mile(s):0
Sky conditions: mostly clear
Temperature: 37 F (3 C)
Dew Point: 33 F (1 C)
Relative Humidity: 86%
Pressure (altimeter): 30.45 in. Hg (1031 hPa)
ob: EDDK 190050Z 10005KT 9999 FEW024 03/01 Q1031 NOSIG
cycle: 1

Düsseldorf

EDDL

METAR
EDDL 190050Z 09007KT CAVOK 02/01 Q1031 NOSIG
EDDLMETAR lang
Duesseldorf, Germany (EDDL) 51-18N 006-46E 41M
Jan 18, 2022 - 07:50 PM EST / 2022.01.19 0050 UTC
Wind: from the E (090 degrees) at 8 MPH (7 KT):0
Visibility: greater than 7 mile(s):0
Temperature: 35 F (2 C)
Windchill: 28 F (-2 C):1
Dew Point: 33 F (1 C)
Relative Humidity: 93%
Pressure (altimeter): 30.45 in. Hg (1031 hPa)
ob: EDDL 190050Z 09007KT CAVOK 02/01 Q1031 NOSIG
cycle: 1

München

EDDM

METAR
EDDM 190050Z 03002KT CAVOK M03/M04 Q1032 NOSIG
EDDMMETAR lang
Munchen, Germany (EDDM) 48-21N 011-47E
Jan 18, 2022 - 07:50 PM EST / 2022.01.19 0050 UTC
Wind: from the NNE (030 degrees) at 2 MPH (2 KT):0
Visibility: greater than 7 mile(s):0
Temperature: 26 F (-3 C)
Dew Point: 24 F (-4 C)
Relative Humidity: 92%
Pressure (altimeter): 30.47 in. Hg (1032 hPa)
ob: EDDM 190050Z 03002KT CAVOK M03/M04 Q1032 NOSIG
cycle: 1

Nürnberg

EDDN

METAR
EDDN 190050Z 10005KT 9999 BKN016 02/M01 Q1033
EDDNMETAR lang
Nuernberg, Germany (EDDN) 49-30N 011-03E 318M
Jan 18, 2022 - 07:50 PM EST / 2022.01.19 0050 UTC
Wind: from the E (100 degrees) at 6 MPH (5 KT):0
Visibility: greater than 7 mile(s):0
Sky conditions: mostly cloudy
Temperature: 35 F (2 C)
Windchill: 30 F (-1 C):1
Dew Point: 30 F (-1 C)
Relative Humidity: 80%
Pressure (altimeter): 30.50 in. Hg (1033 hPa)
ob: EDDN 190050Z 10005KT 9999 BKN016 02/M01 Q1033
cycle: 1

Leipzig - Halle

EDDP

METAR
EDDP 190050Z 21006KT 9999 OVC019 04/02 Q1033 NOSIG
EDDPMETAR lang
Leipzig-Schkeuditz, Germany (EDDP) 51-25N 012-14E 149M
Jan 18, 2022 - 07:50 PM EST / 2022.01.19 0050 UTC
Wind: from the SSW (210 degrees) at 7 MPH (6 KT):0
Visibility: greater than 7 mile(s):0
Sky conditions: overcast
Temperature: 39 F (4 C)
Dew Point: 35 F (2 C)
Relative Humidity: 86%
Pressure (altimeter): 30.50 in. Hg (1033 hPa)
ob: EDDP 190050Z 21006KT 9999 OVC019 04/02 Q1033 NOSIG
cycle: 1

Saarbrücken

EDDR

METAR
EDDR 190050Z 09010KT 9999 FEW016 03/M00 Q1031
EDDRMETAR lang
Saarbruecken / Ensheim, Germany (EDDR) 49-13N 007-07E 320M
Jan 18, 2022 - 07:50 PM EST / 2022.01.19 0050 UTC
Wind: from the E (090 degrees) at 12 MPH (10 KT):0
Visibility: greater than 7 mile(s):0
Sky conditions: mostly clear
Temperature: 37 F (3 C)
Dew Point: 32 F (0 C)
Relative Humidity: 80%
Pressure (altimeter): 30.45 in. Hg (1031 hPa)
ob: EDDR 190050Z 09010KT 9999 FEW016 03/M00 Q1031
cycle: 1

Stuttgart

EDDS

METAR
EDDS 190050Z 28005KT 9999 FEW018 M00/M02 Q1032
EDDSMETAR lang
Stuttgart-Echterdingen, Germany (EDDS) 48-41N 009-13E 391M
Jan 18, 2022 - 07:50 PM EST / 2022.01.19 0050 UTC
Wind: from the W (280 degrees) at 6 MPH (5 KT):0
Visibility: greater than 7 mile(s):0
Sky conditions: mostly clear
Temperature: 32 F (0 C)
Windchill: 26 F (-3 C):1
Dew Point: 28 F (-2 C)
Relative Humidity: 86%
Pressure (altimeter): 30.47 in. Hg (1032 hPa)
ob: EDDS 190050Z 28005KT 9999 FEW018 M00/M02 Q1032
cycle: 1

Berlin - Tegel

EDDT

METAR
EDDT 090650Z 09006KT 050V120 3000 BR OVC003 06/05 Q1027
EDDTMETAR lang
Berlin-Tegel, Germany (EDDT) 52-34N 013-19E 37M
Nov 09, 2020 - 01:50 AM EST / 2020.11.09 0650 UTC
Wind: from the E (090 degrees) at 7 MPH (6 KT) (direction variable):0
Visibility: 1 mile(s):0
Sky conditions: overcast
Weather: mist
Temperature: 42 F (6 C)
Dew Point: 41 F (5 C)
Relative Humidity: 93%
Pressure (altimeter): 30.33 in. Hg (1027 hPa)
ob: EDDT 090650Z 09006KT 050V120 3000 BR OVC003 06/05 Q1027
cycle: 7

Hannover

EDDV

METAR
EDDV 190050Z 25005KT 220V280 9999 BKN014 05/03 Q1032
EDDVMETAR lang
Hannover, Germany (EDDV) 52-28N 009-41E 59M
Jan 18, 2022 - 07:50 PM EST / 2022.01.19 0050 UTC
Wind: from the WSW (250 degrees) at 6 MPH (5 KT) (direction variable):0
Visibility: greater than 7 mile(s):0
Sky conditions: mostly cloudy
Temperature: 41 F (5 C)
Dew Point: 37 F (3 C)
Relative Humidity: 86%
Pressure (altimeter): 30.47 in. Hg (1032 hPa)
ob: EDDV 190050Z 25005KT 220V280 9999 BKN014 05/03 Q1032
cycle: 1

Bremen

EDDW

METAR
EDDW 190050Z 24011KT 9999 BKN009 04/03 Q1032
EDDWMETAR lang
Bremen, Germany (EDDW) 53-03N 008-48E 5M
Jan 18, 2022 - 07:50 PM EST / 2022.01.19 0050 UTC
Wind: from the WSW (240 degrees) at 13 MPH (11 KT):0
Visibility: greater than 7 mile(s):0
Sky conditions: mostly cloudy
Temperature: 39 F (4 C)
Dew Point: 37 F (3 C)
Relative Humidity: 93%
Pressure (altimeter): 30.47 in. Hg (1032 hPa)
ob: EDDW 190050Z 24011KT 9999 BKN009 04/03 Q1032
cycle: 1